Time;durP1;ratioP1;P1;durP2;ratioP2;P2;SDS_P1;SDS_P2;PMS_P1;PMS_P2;Temp;Humidity;BMP_temperature;BMP_pressure;BME280_temperature;BME280_humidity;BME280_pressure;Samples;Min_cycle;Max_cycle;Signal;HPM_P1;HPM_P2
2022/07/19 00:00:01;;;;;;;12.77;5.07;;;;;;;27.97;100.00;101698.66;5066720;28;20091;-51
2022/07/19 00:02:26;;;;;;;8.33;4.63;;;;;;;27.98;100.00;101692.03;5065544;28;20063;-49
2022/07/19 00:04:51;;;;;;;;;;;;;;;27.93;100.00;101692.91;5070186;28;20037;-54
2022/07/19 00:07:17;;;;;;;9.83;4.77;;;;;;;28.09;100.00;101690.78;5069605;28;19927;-51
2022/07/19 00:09:42;;;;;;;;;;;;;;;28.07;100.00;101687.53;5067121;28;20025;-53
2022/07/19 00:12:08;;;;;;;83.83;37.07;;;;;;;28.04;100.00;101683.44;5072995;28;19924;-51
2022/07/19 00:14:33;;;;;;;;;;;;;;;28.16;100.00;101687.72;5069352;28;20056;-51
2022/07/19 00:16:59;;;;;;;172.53;92.37;;;;;;;28.12;100.00;101683.91;5067411;28;19916;-55
2022/07/19 00:19:24;;;;;;;;;;;;;;;27.89;100.00;101681.69;5066997;28;20166;-52
2022/07/19 00:21:50;;;;;;;41.17;20.37;;;;;;;27.86;100.00;101684.22;5071144;28;19912;-56
2022/07/19 00:24:15;;;;;;;190.63;71.18;;;;;;;27.98;100.00;101684.59;5078871;28;20448;-51
2022/07/19 00:26:41;;;;;;;;;;;;;;;27.91;100.00;101675.91;5075500;28;20036;-54
2022/07/19 00:29:07;;;;;;;15.17;8.03;;;;;;;27.96;100.00;101675.03;5074359;28;19908;-52
2022/07/19 00:31:32;;;;;;;13.57;6.72;;;;;;;27.82;100.00;101672.97;5076694;28;20496;-53
2022/07/19 00:33:58;;;;;;;;;;;;;;;27.81;100.00;101671.34;5077766;28;20032;-50
2022/07/19 00:36:23;;;;;;;9.37;5.57;;;;;;;27.86;100.00;101675.97;5082355;28;19913;-53
2022/07/19 00:38:49;;;;;;;;;;;;;;;27.71;100.00;101677.78;5078648;28;20029;-52
2022/07/19 00:41:14;;;;;;;12.27;5.07;;;;;;;27.80;100.00;101680.69;5073690;28;19913;-57
2022/07/19 00:43:40;;;;;;;;;;;;;;;27.73;100.00;101680.25;5073085;28;20140;-51
2022/07/19 00:46:14;;;;;;;10.90;5.03;;;;;;;27.79;100.00;101684.56;5075314;28;19913;-53
2022/07/19 00:48:41;;;;;;;10.63;4.83;;;;;;;27.73;100.00;101685.75;5075858;28;20031;-50
2022/07/19 00:51:06;;;;;;;6.93;4.87;;;;;;;27.83;100.00;101688.34;5070880;28;20064;-51
2022/07/19 00:53:32;;;;;;;;;;;;;;;27.83;100.00;101685.59;5074866;28;20036;-50
2022/07/19 00:56:00;;;;;;;8.23;4.47;;;;;;;27.95;100.00;101681.63;5075815;28;19921;-52
2022/07/19 00:58:26;;;;;;;9.77;5.53;;;;;;;27.93;100.00;101683.88;5078793;28;20036;-52
2022/07/19 01:00:52;;;;;;;9.23;4.33;;;;;;;27.89;100.00;101681.69;5077870;28;20084;-53
2022/07/19 01:03:18;;;;;;;;;;;;;;;27.53;100.00;101686.75;5076250;28;20063;-52
2022/07/19 01:05:46;;;;;;;10.60;5.17;;;;;;;27.47;100.00;101684.03;5072225;28;19924;-55
2022/07/19 01:08:12;;;;;;;10.43;5.07;;;;;;;27.50;100.00;101682.66;5067362;28;20037;-54
2022/07/19 01:10:37;;;;;;;;;;;;;;;27.14;100.00;101680.22;5076901;28;20033;-51
2022/07/19 01:13:03;;;;;;;11.23;5.50;;;;;;;26.89;100.00;101685.66;5075490;28;19921;-55
2022/07/19 01:15:29;;;;;;;10.23;5.33;;;;;;;27.10;100.00;101690.16;5072457;28;20049;-53
2022/07/19 01:17:55;;;;;;;;;;;;;;;27.02;100.00;101680.59;5075405;28;20030;-56
2022/07/19 01:20:22;;;;;;;11.10;5.83;;;;;;;27.00;100.00;101678.16;5078963;28;19913;-53
2022/07/19 01:22:48;;;;;;;10.60;6.03;;;;;;;26.92;100.00;101678.75;5071418;28;20096;-58
2022/07/19 01:25:14;;;;;;;;;;;;;;;27.03;100.00;101680.34;5083343;28;20037;-56
2022/07/19 01:27:42;;;;;;;13.37;6.10;;;;;;;26.93;100.00;101674.91;5079176;28;19905;-51
2022/07/19 01:30:19;;;;;;;13.03;5.63;;;;;;;26.92;100.00;101678.75;5080192;28;20036;-55
2022/07/19 01:32:45;;;;;;;11.40;5.50;;;;;;;26.88;100.00;101680.44;5074013;28;20039;-52
2022/07/19 01:35:12;;;;;;;14.80;5.77;;;;;;;26.77;100.00;101677.75;5074235;28;20033;-51
2022/07/19 01:37:38;;;;;;;10.33;5.57;;;;;;;26.80;100.00;101678.28;5072561;28;20055;-54
2022/07/19 01:40:04;;;;;;;;;;;;;;;26.77;100.00;101683.25;5073152;28;20029;-53
2022/07/19 01:42:30;;;;;;;14.13;5.72;;;;;;;26.69;100.00;101678.34;5072890;28;19979;-54
2022/07/19 01:44:56;;;;;;;14.88;5.85;;;;;;;26.65;100.00;101680.03;5074315;28;20029;-54
2022/07/19 01:47:22;;;;;;;11.73;6.05;;;;;;;26.67;100.00;101677.03;5073947;28;20100;-50
2022/07/19 01:49:48;;;;;;;11.32;5.68;;;;;;;26.53;100.00;101677.63;5076420;28;20036;-50
2022/07/19 01:52:13;;;;;;;11.20;6.00;;;;;;;26.52;100.00;101664.19;5077858;28;20044;-55
2022/07/19 01:54:39;;;;;;;;;;;;;;;26.55;100.00;101666.41;5077368;28;20083;-52
2022/07/19 01:57:04;;;;;;;21.17;6.60;;;;;;;26.46;100.00;101669.72;5080801;28;19912;-53
2022/07/19 01:59:30;;;;;;;;;;;;;;;26.36;100.00;101671.69;5077806;28;20039;-55
2022/07/19 02:01:55;;;;;;;10.30;5.43;;;;;;;26.42;100.00;101659.63;5080264;28;19913;-54
2022/07/19 02:04:21;;;;;;;11.45;6.55;;;;;;;26.34;100.00;101666.53;5077824;28;20036;-52
2022/07/19 02:06:46;;;;;;;;;;;;;;;26.42;100.00;101660.44;5078368;28;20064;-50
2022/07/19 02:09:12;;;;;;;15.47;6.50;;;;;;;26.33;100.00;101659.41;5080998;28;19912;-52
2022/07/19 02:11:37;;;;;;;;;;;;;;;26.32;100.00;101649.53;5079434;28;20062;-52
2022/07/19 02:14:05;;;;;;;14.20;5.70;;;;;;;26.30;100.00;101646.25;5079201;28;19917;-53
2022/07/19 02:16:30;;;;;;;11.67;5.80;;;;;;;26.25;100.00;101649.00;5084206;28;20029;-55
2022/07/19 02:18:56;;;;;;;9.82;5.68;;;;;;;26.32;100.00;101647.59;5079079;28;20059;-52
2022/07/19 02:21:22;;;;;;;12.90;5.93;;;;;;;26.29;100.00;101650.06;5075104;28;20112;-56
2022/07/19 02:23:47;;;;;;;;;;;;;;;26.22;100.00;101642.19;5076938;28;20043;-54
2022/07/19 02:26:13;;;;;;;10.60;5.40;;;;;;;26.20;100.00;101647.13;5077154;28;19987;-54
2022/07/19 02:28:38;;;;;;;11.25;6.13;;;;;;;26.08;100.00;101649.34;5079743;28;20063;-56
2022/07/19 02:31:04;;;;;;;;;;;;;;;26.05;100.00;101651.53;5080329;28;20060;-54
2022/07/19 02:33:30;;;;;;;24.17;11.53;;;;;;;26.16;100.00;101651.47;5083336;28;19970;-53
2022/07/19 02:35:55;;;;;;;27.70;15.30;;;;;;;26.20;100.00;101647.94;5082791;28;20033;-55
2022/07/19 02:38:21;;;;;;;;;;;;;;;26.16;100.00;101643.25;5079646;28;20048;-53
2022/07/19 02:40:47;;;;;;;21.83;11.17;;;;;;;26.10;100.00;101647.97;5081300;28;19942;-55
2022/07/19 02:43:12;;;;;;;18.50;8.90;;;;;;;25.98;100.00;101644.72;5082842;28;20044;-51
2022/07/19 02:45:38;;;;;;;13.70;6.65;;;;;;;25.86;100.00;101645.88;5076739;28;20096;-51
2022/07/19 02:48:04;;;;;;;12.05;7.03;;;;;;;25.86;100.00;101640.41;5072899;28;20069;-51
2022/07/19 02:50:31;;;;;;;16.93;7.87;;;;;;;25.78;100.00;101643.69;5076098;28;20054;-52
2022/07/19 02:52:56;;;;;;;;;;;;;;;25.76;100.00;101637.69;5074090;28;20036;-56
2022/07/19 02:55:21;;;;;;;12.77;7.73;;;;;;;25.74;100.00;101631.66;5079433;28;19916;-55
2022/07/19 02:57:47;;;;;;;13.30;7.38;;;;;;;26.06;100.00;101639.47;5080811;28;20028;-51
2022/07/19 03:00:13;;;;;;;13.35;7.40;;;;;;;26.15;100.00;101628.75;5078808;28;20040;-54
2022/07/19 03:02:39;;;;;;;16.40;6.87;;;;;;;26.12;100.00;101629.31;5081033;28;20025;-51
2022/07/19 03:05:06;;;;;;;13.77;7.20;;;;;;;26.09;100.00;101643.59;5078829;28;20025;-54
2022/07/19 03:07:32;;;;;;;13.43;7.50;;;;;;;26.03;100.00;101634.56;5082433;28;20043;-54
2022/07/19 03:09:57;;;;;;;13.07;6.40;;;;;;;26.08;100.00;101630.16;5077139;28;20078;-53
2022/07/19 03:12:23;;;;;;;11.95;6.80;;;;;;;26.08;100.00;101627.41;5074388;28;20044;-55
2022/07/19 03:14:48;;;;;;;10.48;7.00;;;;;;;25.84;100.00;101628.91;5077406;28;20044;-55
2022/07/19 03:17:14;;;;;;;11.18;6.60;;;;;;;25.97;100.00;101632.13;5076023;28;20097;-57
2022/07/19 03:19:39;;;;;;;11.63;7.63;;;;;;;25.98;100.00;101636.50;5076182;28;20039;-54
2022/07/19 03:22:04;;;;;;;;;;;;;;;25.91;100.00;101628.59;5076045;28;20024;-55
2022/07/19 03:24:30;;;;;;;12.67;6.40;;;;;;;25.96;100.00;101627.75;5079069;28;19935;-53
2022/07/19 03:26:56;;;;;;;16.40;6.70;;;;;;;25.94;100.00;101627.22;5078316;28;20025;-54
2022/07/19 03:29:21;;;;;;;10.20;6.00;;;;;;;25.94;100.00;101632.69;5081296;28;20056;-55
2022/07/19 03:31:47;;;;;;;17.58;6.18;;;;;;;25.89;100.00;101628.88;5083141;28;20036;-53
2022/07/19 03:34:12;;;;;;;16.52;7.20;;;;;;;25.79;100.00;101620.69;5076569;28;20040;-54
2022/07/19 03:36:38;;;;;;;12.27;5.85;;;;;;;25.91;100.00;101626.69;5077835;28;20083;-53
2022/07/19 03:39:04;;;;;;;17.38;7.30;;;;;;;25.78;100.00;101624.53;5075399;28;20041;-54
2022/07/19 03:41:30;;;;;;;20.23;7.30;;;;;;;25.80;100.00;101632.47;5072808;28;20040;-52
2022/07/19 03:43:56;;;;;;;16.48;7.28;;;;;;;25.80;100.00;101627.81;5077067;28;20064;-54
2022/07/19 03:46:21;;;;;;;15.80;7.00;;;;;;;25.77;100.00;101628.38;5074078;28;20092;-51
2022/07/19 03:48:48;;;;;;;17.25;6.70;;;;;;;25.79;100.00;101623.44;5076477;28;20045;-52
2022/07/19 03:51:13;;;;;;;13.93;7.10;;;;;;;25.86;100.00;101625.88;5078254;28;20044;-53
2022/07/19 03:53:39;;;;;;;15.75;7.68;;;;;;;25.83;100.00;101632.72;5080424;28;20035;-56
2022/07/19 03:56:05;;;;;;;16.15;7.13;;;;;;;25.79;100.00;101631.66;5079370;28;20037;-56
2022/07/19 03:58:32;;;;;;;19.87;7.30;;;;;;;25.81;100.00;101629.44;5081454;28;20064;-54
2022/07/19 04:00:58;;;;;;;12.13;7.17;;;;;;;25.67;100.00;101629.22;5077147;28;20083;-53
2022/07/19 04:03:23;;;;;;;13.48;7.90;;;;;;;25.56;100.00;101625.69;5074542;28;20029;-55
2022/07/19 04:05:49;;;;;;;17.80;7.38;;;;;;;25.55;100.00;101624.06;5075415;28;20035;-50
2022/07/19 04:08:14;;;;;;;14.10;7.28;;;;;;;25.65;100.00;101627.88;5075122;28;20029;-53
2022/07/19 04:10:41;;;;;;;15.00;7.97;;;;;;;25.68;100.00;101630.06;5077806;28;20041;-55
2022/07/19 04:13:06;;;;;;;18.03;7.17;;;;;;;25.01;100.00;101629.06;5075104;28;20036;-56
2022/07/19 04:15:32;;;;;;;15.55;8.57;;;;;;;24.92;100.00;101627.97;5077245;28;20033;-56
2022/07/19 04:17:58;;;;;;;16.02;8.27;;;;;;;24.93;100.00;101629.59;5078667;28;20429;-54
2022/07/19 04:20:23;;;;;;;21.80;8.63;;;;;;;24.94;100.00;101628.50;5080920;28;20044;-56
2022/07/19 04:22:49;;;;;;;18.88;7.60;;;;;;;24.94;100.00;101616.72;5080885;28;20049;-54
2022/07/19 04:25:14;;;;;;;17.02;8.43;;;;;;;24.93;100.00;101621.41;5075732;28;20059;-54
2022/07/19 04:27:40;;;;;;;15.45;8.07;;;;;;;24.94;100.00;101628.50;5075911;28;20035;-54
2022/07/19 04:30:06;;;;;;;15.98;8.05;;;;;;;24.90;100.00;101627.41;5073186;28;20041;-57
2022/07/19 04:32:33;;;;;;;20.10;8.97;;;;;;;25.00;100.00;101619.19;5077417;28;20037;-55
2022/07/19 04:35:00;;;;;;;18.40;7.57;;;;;;;25.04;100.00;101620.28;5072433;28;20057;-54
2022/07/19 04:37:26;;;;;;;21.00;9.10;;;;;;;24.96;100.00;101625.50;5071406;28;20041;-55
2022/07/19 04:39:52;;;;;;;26.33;12.30;;;;;;;25.06;100.00;101631.78;5075114;28;20074;-54
2022/07/19 04:42:18;;;;;;;21.88;9.50;;;;;;;24.96;100.00;101631.78;5077423;28;20033;-52
2022/07/19 04:44:44;;;;;;;16.63;9.40;;;;;;;24.94;100.00;101630.41;5079368;28;20066;-56
2022/07/19 04:47:10;;;;;;;18.03;10.50;;;;;;;24.97;100.00;101633.44;5072464;28;20043;-52
2022/07/19 04:49:36;;;;;;;24.85;13.15;;;;;;;25.00;100.00;101632.88;5067350;28;20037;-53
2022/07/19 04:52:02;;;;;;;26.30;15.35;;;;;;;25.01;100.00;101631.78;5072539;28;20037;-52
2022/07/19 04:54:27;;;;;;;23.25;11.45;;;;;;;25.02;100.00;101633.44;5076358;28;20092;-54
2022/07/19 04:56:53;;;;;;;31.05;11.85;;;;;;;25.03;100.00;101634.25;5068861;28;20040;-52
2022/07/19 04:59:19;;;;;;;34.00;14.77;;;;;;;25.02;100.00;101629.84;5074626;28;20101;-50
2022/07/19 05:01:44;;;;;;;37.15;18.20;;;;;;;25.10;100.00;101632.06;5069632;28;20036;-54
2022/07/19 05:04:10;;;;;;;17.27;9.73;;;;;;;25.15;100.00;101629.31;5069181;28;20088;-52
2022/07/19 05:06:36;;;;;;;20.33;9.23;;;;;;;25.16;100.00;101630.16;5067053;28;20055;-51
2022/07/19 05:09:02;;;;;;;29.05;11.25;;;;;;;25.19;100.00;101627.66;5080412;28;20060;-53
2022/07/19 05:11:28;;;;;;;23.50;11.80;;;;;;;25.19;100.00;101630.41;5073605;28;20041;-53
2022/07/19 05:13:53;;;;;;;19.10;10.52;;;;;;;25.14;100.00;101633.16;5073907;28;20033;-53
2022/07/19 05:16:19;;;;;;;25.48;13.73;;;;;;;25.20;100.00;101636.69;5071173;28;20044;-55
2022/07/19 05:18:44;;;;;;;33.17;15.32;;;;;;;25.23;100.00;101630.66;5072915;28;20033;-56
2022/07/19 05:21:10;;;;;;;32.13;17.77;;;;;;;25.21;100.00;101621.91;5067332;28;20040;-53
2022/07/19 05:23:35;;;;;;;31.27;17.48;;;;;;;25.27;100.00;101626.28;5072155;28;20072;-54
2022/07/19 05:26:00;;;;;;;24.77;13.52;;;;;;;25.34;100.00;101628.75;5066743;28;20036;-55
2022/07/19 05:28:26;;;;;;;15.80;9.48;;;;;;;25.53;100.00;101626.25;5069569;28;20045;-54
2022/07/19 05:30:52;;;;;;;15.27;7.63;;;;;;;25.52;100.00;101621.06;5072489;28;20069;-56
2022/07/19 05:33:17;;;;;;;17.05;7.55;;;;;;;25.60;100.00;101617.75;5075966;28;20049;-59
2022/07/19 05:35:43;;;;;;;11.18;7.13;;;;;;;25.64;100.00;101627.03;5075480;28;20047;-51
2022/07/19 05:38:08;;;;;;;16.60;7.70;;;;;;;25.63;100.00;101625.41;5076710;28;20044;-55
2022/07/19 05:40:33;;;;;;;14.02;7.55;;;;;;;25.66;100.00;101629.50;5070654;28;20037;-56
2022/07/19 05:43:00;;;;;;;17.98;7.22;;;;;;;25.77;100.00;101631.09;5076339;28;20060;-54
2022/07/19 05:45:26;;;;;;;16.05;7.32;;;;;;;25.58;100.00;101626.22;5073433;28;20067;-51
2022/07/19 05:47:52;;;;;;;15.67;6.87;;;;;;;25.59;100.00;101619.66;5073790;28;20048;-55
2022/07/19 05:50:17;;;;;;;;;;;;;;;25.66;100.00;101630.31;5075353;28;20041;-52
2022/07/19 05:52:43;;;;;;;16.33;7.10;;;;;;;25.74;100.00;101629.75;5072282;28;19916;-56
2022/07/19 05:55:09;;;;;;;14.40;6.55;;;;;;;25.88;100.00;101627.25;5072474;28;20040;-56
2022/07/19 05:57:34;;;;;;;;;;;;;;;25.90;100.00;101633.25;5073691;28;20044;-51
2022/07/19 05:59:59;;;;;;;12.13;6.60;;;;;;;25.98;100.00;101631.03;5077790;28;19944;-55
2022/07/19 06:02:25;;;;;;;;;;;;;;;26.13;100.00;101624.66;5072748;28;20029;-54
2022/07/19 06:04:51;;;;;;;17.70;6.77;;;;;;;26.01;100.00;101622.25;5072180;28;19934;-55
2022/07/19 06:07:16;;;;;;;;;;;;;;;26.06;100.00;101620.28;5071604;28;20028;-55
2022/07/19 06:09:41;;;;;;;12.87;6.63;;;;;;;26.12;100.00;101623.84;5067165;28;19947;-55
2022/07/19 06:12:07;;;;;;;14.68;7.30;;;;;;;26.20;100.00;101626.00;5067073;28;20061;-55
2022/07/19 06:14:32;;;;;;;;;;;;;;;26.34;100.00;101633.63;5073748;28;20063;-53
2022/07/19 06:16:59;;;;;;;15.23;6.37;;;;;;;26.40;100.00;101635.22;5073587;28;19944;-55
2022/07/19 06:19:25;;;;;;;;;;;;;;;26.52;100.00;101631.28;5073820;28;20051;-53
2022/07/19 06:21:51;;;;;;;19.00;7.80;;;;;;;26.53;100.00;101633.75;5073781;28;19971;-52
2022/07/19 06:24:16;;;;;;;16.35;6.95;;;;;;;26.61;100.00;101629.59;5073445;28;20053;-52
2022/07/19 06:26:41;;;;;;;;;;;;;;;26.64;100.00;101631.75;5078119;28;20024;-54
2022/07/19 06:29:07;;;;;;;13.60;7.77;;;;;;;26.65;100.00;101638.88;5073281;28;19920;-50
2022/07/19 06:31:32;;;;;;;;;;;;;;;26.66;100.00;101632.28;5073854;28;20040;-53
2022/07/19 06:33:58;;;;;;;17.67;7.90;;;;;;;26.68;100.00;101629.28;5072687;28;19952;-56
2022/07/19 06:36:23;;;;;;;;;;;;;;;26.59;100.00;101629.06;5068800;28;20052;-51
2022/07/19 06:38:49;;;;;;;11.50;7.97;;;;;;;26.94;100.00;101632.66;5071096;28;19913;-52
2022/07/19 06:41:16;;;;;;;;;;;;;;;26.96;100.00;101630.44;5075223;28;20056;-53
2022/07/19 06:43:42;;;;;;;17.30;8.05;;;;;;;26.92;100.00;101626.63;5078094;28;19976;-51
2022/07/19 06:46:08;;;;;;;14.83;8.17;;;;;;;27.00;100.00;101636.16;5074593;28;20036;-53
2022/07/19 06:48:35;;;;;;;23.77;8.13;;;;;;;27.12;100.00;101638.53;5071743;28;20124;-53
2022/07/19 06:51:00;;;;;;;17.67;8.43;;;;;;;27.15;100.00;101637.94;5074456;28;20033;-56
2022/07/19 06:53:26;;;;;;;34.80;8.97;;;;;;;27.21;100.00;101639.53;5074836;28;20051;-52
2022/07/19 06:55:52;;;;;;;;;;;;;;;27.19;100.00;101636.25;5075058;28;20054;-51
2022/07/19 06:58:17;;;;;;;19.27;10.10;;;;;;;27.17;100.00;101635.72;5072097;28;19916;-46
2022/07/19 07:00:43;;;;;;;;;;;;;;;27.26;100.00;101633.19;5070881;28;20032;-46
2022/07/19 07:03:09;;;;;;;18.90;9.00;;;;;;;27.29;100.00;101633.44;5071383;28;19913;-52
2022/07/19 07:05:35;;;;;;;;;;;;;;;27.24;100.00;101633.47;5072680;28;20031;-50
2022/07/19 07:08:00;;;;;;;20.30;9.63;;;;;;;27.38;100.00;101632.78;5072936;28;19979;-48
2022/07/19 07:10:26;;;;;;;;;;;;;;;27.36;100.00;101632.25;5077829;28;20092;-48
2022/07/19 07:12:52;;;;;;;19.20;8.30;;;;;;;27.28;100.00;101637.28;5076969;28;19917;-49
2022/07/19 07:15:17;;;;;;;;;;;;;;;27.24;100.00;101636.22;5071723;28;20040;-52
2022/07/19 07:17:43;;;;;;;18.07;7.43;;;;;;;27.47;100.00;101626.38;5070825;28;19970;-47
2022/07/19 07:20:09;;;;;;;16.33;6.17;;;;;;;27.68;100.00;101628.91;5073138;28;20041;-50
2022/07/19 07:22:36;;;;;;;27.20;9.30;;;;;;;27.66;100.00;101624.81;5071537;28;20021;-53
2022/07/19 07:25:03;;;;;;;15.63;8.47;;;;;;;27.84;100.00;101623.22;5071652;28;20057;-50
2022/07/19 07:27:28;;;;;;;16.90;7.37;;;;;;;27.77;100.00;101615.34;5069349;28;20633;-51
2022/07/19 07:29:54;;;;;;;;;;;;;;;27.81;100.00;101612.84;5072171;28;20029;-47
2022/07/19 07:32:20;;;;;;;16.40;7.93;;;;;;;27.94;100.00;101622.28;5073989;28;19917;-50
2022/07/19 07:34:45;;;;;;;;;;;;;;;28.08;100.00;101628.69;5076379;28;20089;-47
2022/07/19 07:37:11;;;;;;;20.20;5.97;;;;;;;28.14;100.00;101623.94;5074299;28;19912;-48
2022/07/19 07:39:38;;;;;;;16.37;5.50;;;;;;;28.32;100.00;101619.56;5076519;28;20090;-50
2022/07/19 07:42:04;;;;;;;11.90;5.13;;;;;;;28.32;100.00;101625.06;5068033;28;20029;-48
2022/07/19 07:44:30;;;;;;;21.33;6.27;;;;;;;28.39;100.00;101622.78;5068141;28;20132;-49
2022/07/19 07:46:56;;;;;;;12.23;5.40;;;;;;;28.58;100.00;101621.91;5071019;28;20057;-53
2022/07/19 07:49:22;;;;;;;21.50;6.57;;;;;;;28.81;100.00;101620.22;5070739;28;20032;-46
2022/07/19 07:51:48;;;;;;;20.83;6.67;;;;;;;28.70;100.00;101614.03;5076943;28;20062;-51
2022/07/19 07:54:14;;;;;;;16.67;5.93;;;;;;;28.73;100.00;101626.38;5072128;28;20049;-49
2022/07/19 07:56:40;;;;;;;14.57;5.23;;;;;;;28.88;100.00;101619.84;5070853;28;20040;-50
2022/07/19 07:59:05;;;;;;;17.07;5.37;;;;;;;28.99;100.00;101621.28;5076325;28;20100;-49
2022/07/19 08:01:32;;;;;;;13.63;5.93;;;;;;;28.99;100.00;101628.72;5070914;28;20025;-49
2022/07/19 08:03:58;;;;;;;13.07;5.80;;;;;;;29.14;100.00;101624.88;5072602;28;20029;-49
2022/07/19 08:06:23;;;;;;;13.43;6.63;;;;;;;29.15;100.00;101627.31;5071980;28;20032;-48
2022/07/19 08:08:49;;;;;;;18.00;6.30;;;;;;;29.25;100.00;101629.06;5070022;28;20036;-47
2022/07/19 08:11:14;;;;;;;12.67;6.00;;;;;;;29.40;100.00;101619.69;5076098;28;20048;-53
2022/07/19 08:13:39;;;;;;;17.73;5.97;;;;;;;29.42;100.00;101627.69;5072528;28;20067;-49
2022/07/19 08:16:06;;;;;;;15.75;5.93;;;;;;;29.55;100.00;101632.41;5071003;28;20473;-49
2022/07/19 08:18:32;;;;;;;17.00;6.27;;;;;;;29.71;100.00;101632.06;5072068;28;20032;-50
2022/07/19 08:20:59;;;;;;;23.27;6.55;;;;;;;29.76;100.00;101630.03;5071540;28;20029;-47
2022/07/19 08:23:25;;;;;;;17.77;6.70;;;;;;;29.75;100.00;101633.91;5069902;28;20066;-51
2022/07/19 08:25:51;;;;;;;16.90;5.50;;;;;;;29.84;100.00;101633.19;5074085;28;20025;-52
2022/07/19 08:28:16;;;;;;;18.15;6.05;;;;;;;29.89;100.00;101633.09;5068184;28;20048;-48
2022/07/19 08:30:42;;;;;;;16.40;5.57;;;;;;;30.26;100.00;101633.16;5070076;28;20044;-52
2022/07/19 08:33:08;;;;;;;15.32;5.95;;;;;;;30.35;100.00;101636.78;5071051;28;20056;-47
2022/07/19 08:35:34;;;;;;;13.77;5.45;;;;;;;30.42;100.00;101644.63;5075795;28;20100;-48
2022/07/19 08:38:00;;;;;;;16.33;5.75;;;;;;;30.37;100.00;101630.97;5078621;28;20033;-48
2022/07/19 08:40:26;;;;;;;16.10;6.47;;;;;;;30.54;100.00;101619.25;5071088;28;20056;-48
2022/07/19 08:42:53;;;;;;;14.93;5.35;;;;;;;30.91;100.00;101620.00;5072765;28;20052;-51
2022/07/19 08:45:22;;;;;;;15.23;5.60;;;;;;;30.98;100.00;101619.53;5073955;28;20058;-47
2022/07/19 08:47:48;;;;;;;14.20;5.07;;;;;;;31.25;100.00;101617.75;5068462;28;20025;-49
2022/07/19 08:50:15;;;;;;;16.33;5.45;;;;;;;31.44;100.00;101617.50;5069476;28;20112;-51
2022/07/19 08:52:41;;;;;;;10.95;4.85;;;;;;;31.24;100.00;101618.88;5069170;28;20029;-49
2022/07/19 08:55:08;;;;;;;14.82;5.70;;;;;;;31.10;100.00;101607.91;5067921;28;20037;-54
2022/07/19 09:00:18;;;;;;;8.73;4.30;;;;;;;31.43;100.00;101608.38;5072439;28;20109;-51
2022/07/19 09:02:59;;;;;;;11.35;4.03;;;;;;;31.55;100.00;101604.22;5069315;28;20026;-50
2022/07/19 09:05:26;;;;;;;11.88;4.25;;;;;;;31.79;100.00;101603.78;5064993;28;20033;-50
2022/07/19 09:08:03;;;;;;;18.98;4.35;;;;;;;31.76;100.00;101601.66;5071273;28;20063;-49
2022/07/19 09:10:29;;;;;;;13.18;3.50;;;;;;;31.54;96.20;101610.88;5071622;28;20036;-52
2022/07/19 09:13:09;;;;;;;12.57;3.72;;;;;;;31.61;98.11;101598.22;5071500;28;20044;-51
2022/07/19 09:15:46;;;;;;;12.63;3.92;;;;;;;31.93;99.94;101600.09;5068436;28;20055;-50
2022/07/19 09:18:21;;;;;;;11.90;3.67;;;;;;;32.01;96.54;101602.88;5067508;28;20037;-52
2022/07/19 09:20:50;;;;;;;7.55;3.30;;;;;;;32.02;95.49;101596.19;5067227;28;20044;-48
2022/07/19 09:23:16;;;;;;;13.77;3.83;;;;;;;32.17;94.80;101597.66;5066572;28;20040;-50
2022/07/19 09:25:45;;;;;;;11.65;3.70;;;;;;;32.49;92.58;101596.69;5065468;28;20072;-47
2022/07/19 09:28:12;;;;;;;8.00;3.45;;;;;;;32.49;90.46;101593.91;5068978;28;20051;-50
2022/07/19 09:30:43;;;;;;;11.20;3.42;;;;;;;32.84;90.85;101591.88;5068385;28;20108;-51
2022/07/19 09:33:11;;;;;;;12.93;3.88;;;;;;;33.11;91.69;101595.41;5067575;28;20009;-54
2022/07/19 09:35:42;;;;;;;7.18;3.13;;;;;;;33.22;88.85;101598.63;5070703;28;20041;-51
2022/07/19 09:38:26;;;;;;;8.20;2.97;;;;;;;33.64;82.74;101594.34;5068150;28;20037;-46
2022/07/19 09:40:54;;;;;;;14.57;3.47;;;;;;;33.93;84.64;101595.47;5072883;28;20032;-49
2022/07/19 09:43:22;;;;;;;12.25;3.00;;;;;;;34.21;80.87;101598.50;5069736;28;20051;-48
2022/07/19 09:45:48;;;;;;;9.13;3.22;;;;;;;34.76;77.34;101592.94;5075645;28;20033;-50
2022/07/19 09:48:16;;;;;;;11.77;3.08;;;;;;;35.24;71.05;101589.78;5076168;28;20029;-53
2022/07/19 09:50:43;;;;;;;9.38;2.80;;;;;;;35.59;65.87;101592.91;5071028;28;20067;-49
2022/07/19 09:53:09;;;;;;;6.80;2.72;;;;;;;35.98;62.89;101594.41;5073492;28;20043;-51
2022/07/19 09:55:35;;;;;;;9.10;2.78;;;;;;;36.63;56.90;101592.69;5071731;28;20028;-50
2022/07/19 09:58:02;;;;;;;9.18;2.50;;;;;;;37.43;53.02;101595.47;5076486;28;20043;-50
2022/07/19 10:00:28;;;;;;;6.60;3.13;;;;;;;37.86;47.09;101601.22;5073268;28;20043;-49
2022/07/19 10:02:59;;;;;;;7.28;2.22;;;;;;;38.36;44.62;101604.25;5072288;28;20020;-49
2022/07/19 10:05:27;;;;;;;13.40;2.45;;;;;;;38.86;41.79;101603.53;5071291;28;20047;-53
2022/07/19 10:07:53;;;;;;;15.45;3.13;;;;;;;39.44;43.11;101599.72;5073341;28;20024;-51
2022/07/19 10:10:21;;;;;;;6.40;2.60;;;;;;;40.09;40.38;101599.75;5075935;28;20033;-53
2022/07/19 10:12:48;;;;;;;13.00;2.60;;;;;;;40.55;41.75;101606.25;5079302;28;20032;-53
2022/07/19 10:15:16;;;;;;;8.82;2.67;;;;;;;40.92;39.54;101602.63;5077119;28;20036;-50
2022/07/19 10:18:09;;;;;;;11.10;3.13;;;;;;;41.32;37.46;101594.50;5082763;28;20036;-48
2022/07/19 10:20:36;;;;;;;11.05;3.00;;;;;;;41.64;36.92;101599.53;5081497;28;20185;-48
2022/07/19 10:23:03;;;;;;;16.25;3.28;;;;;;;41.95;35.73;101590.81;5081203;28;20093;-51
2022/07/19 10:25:46;;;;;;;6.97;3.08;;;;;;;42.25;36.50;101586.91;5076668;28;20047;-50
2022/07/19 10:28:38;;;;;;;14.57;3.47;;;;;;;42.56;35.54;101585.38;5076395;28;20033;-45
2022/07/19 10:31:25;;;;;;;8.23;2.83;;;;;;;42.54;34.23;101579.34;5073741;28;20116;-53
2022/07/19 10:34:06;;;;;;;9.38;2.88;;;;;;;42.70;32.98;101587.41;5083048;28;20029;-51
2022/07/19 10:36:40;;;;;;;10.68;2.50;;;;;;;43.16;32.17;101586.97;5078487;28;20088;-48
2022/07/19 10:39:17;;;;;;;7.97;2.10;;;;;;;43.34;31.78;101584.13;5077082;28;20102;-48
2022/07/19 10:42:21;;;;;;;16.40;2.58;;;;;;;43.46;30.85;101578.06;5080548;28;20029;-50
2022/07/19 10:44:56;;;;;;;12.77;5.30;;;;;;;43.60;30.98;101580.03;5084541;28;20079;-50
2022/07/19 10:47:31;;;;;;;9.23;3.00;;;;;;;43.25;30.10;101576.06;5078601;28;20100;-47
2022/07/19 10:50:08;;;;;;;13.65;2.90;;;;;;;43.77;29.90;101572.72;5080225;28;20465;-51
2022/07/19 10:52:42;;;;;;;11.77;3.67;;;;;;;44.51;29.21;101571.06;5078660;28;20049;-51
2022/07/19 10:55:24;;;;;;;9.68;2.88;;;;;;;44.77;29.15;101569.66;5080959;28;20084;-49
2022/07/19 10:57:51;;;;;;;5.90;2.42;;;;;;;44.83;28.48;101564.38;5078859;28;20053;-52
2022/07/19 11:00:28;;;;;;;9.05;2.13;;;;;;;44.67;28.52;101568.53;5077696;28;20037;-53
2022/07/19 11:03:28;;;;;;;14.65;2.65;;;;;;;44.95;28.79;101563.88;5076491;28;20063;-49
2022/07/19 11:05:59;;;;;;;7.85;2.40;;;;;;;45.15;29.22;101566.06;5082319;28;20024;-52
2022/07/19 11:08:36;;;;;;;8.70;3.05;;;;;;;45.81;27.99;101566.91;5079841;28;20029;-49
2022/07/19 11:11:10;;;;;;;6.07;2.13;;;;;;;45.30;27.98;101563.09;5085021;28;20036;-49
2022/07/19 11:13:38;;;;;;;10.02;2.42;;;;;;;45.99;27.65;101557.38;5081196;28;20033;-53
2022/07/19 11:16:05;;;;;;;8.05;2.15;;;;;;;45.48;27.49;101548.78;5079955;28;20067;-49
2022/07/19 11:18:31;;;;;;;12.70;3.25;;;;;;;46.20;27.30;101544.97;5074467;28;20028;-52
2022/07/19 11:20:58;;;;;;;7.65;2.58;;;;;;;46.71;26.46;101546.19;5081288;28;20028;-53
2022/07/19 11:23:28;;;;;;;6.97;2.15;;;;;;;46.79;25.48;101544.78;5077871;28;20046;-51